sensor_id;sensor_type;location;lat;lon;timestamp;P1;durP1;ratioP1;P2;durP2;ratioP2
40244;SDS011;25963;42.694;23.600;2023-05-14T00:02:18;4.30;;;3.05;;
40244;SDS011;25963;42.694;23.600;2023-05-14T00:04:43;6.13;;;2.67;;
40244;SDS011;25963;42.694;23.600;2023-05-14T00:07:09;5.65;;;2.85;;
40244;SDS011;25963;42.694;23.600;2023-05-14T00:09:34;2.83;;;2.53;;
40244;SDS011;25963;42.694;23.600;2023-05-14T00:12:00;5.18;;;2.55;;
40244;SDS011;25963;42.694;23.600;2023-05-14T00:14:26;4.07;;;2.63;;
40244;SDS011;25963;42.694;23.600;2023-05-14T00:16:51;5.15;;;3.67;;
40244;SDS011;25963;42.694;23.600;2023-05-14T00:19:16;4.30;;;2.58;;
40244;SDS011;25963;42.694;23.600;2023-05-14T00:21:42;3.13;;;2.70;;
40244;SDS011;25963;42.694;23.600;2023-05-14T00:24:08;4.30;;;2.90;;
40244;SDS011;25963;42.694;23.600;2023-05-14T00:26:33;3.33;;;2.63;;
40244;SDS011;25963;42.694;23.600;2023-05-14T00:28:58;5.22;;;2.72;;
40244;SDS011;25963;42.694;23.600;2023-05-14T00:31:24;2.83;;;2.33;;
40244;SDS011;25963;42.694;23.600;2023-05-14T00:33:49;4.45;;;2.70;;
40244;SDS011;25963;42.694;23.600;2023-05-14T00:36:15;2.92;;;2.30;;
40244;SDS011;25963;42.694;23.600;2023-05-14T00:38:40;6.65;;;2.63;;
40244;SDS011;25963;42.694;23.600;2023-05-14T00:41:06;2.90;;;2.42;;
40244;SDS011;25963;42.694;23.600;2023-05-14T00:43:31;4.50;;;2.80;;
40244;SDS011;25963;42.694;23.600;2023-05-14T00:45:57;4.25;;;3.00;;
40244;SDS011;25963;42.694;23.600;2023-05-14T00:48:23;3.80;;;2.28;;
40244;SDS011;25963;42.694;23.600;2023-05-14T00:50:49;3.53;;;2.30;;
40244;SDS011;25963;42.694;23.600;2023-05-14T00:53:15;4.93;;;2.30;;
40244;SDS011;25963;42.694;23.600;2023-05-14T00:55:42;2.20;;;2.00;;
40244;SDS011;25963;42.694;23.600;2023-05-14T00:58:10;4.38;;;2.55;;
40244;SDS011;25963;42.694;23.600;2023-05-14T01:00:37;3.90;;;1.98;;
40244;SDS011;25963;42.694;23.600;2023-05-14T01:03:04;3.70;;;2.40;;
40244;SDS011;25963;42.694;23.600;2023-05-14T01:05:42;5.57;;;2.40;;
40244;SDS011;25963;42.694;23.600;2023-05-14T01:10:56;3.08;;;1.90;;
40244;SDS011;25963;42.694;23.600;2023-05-14T01:14:12;4.35;;;2.50;;
40244;SDS011;25963;42.694;23.600;2023-05-14T01:16:17;3.20;;;2.10;;
40244;SDS011;25963;42.694;23.600;2023-05-14T01:18:45;4.97;;;2.30;;
40244;SDS011;25963;42.694;23.600;2023-05-14T01:23:57;8.55;;;2.90;;
40244;SDS011;25963;42.694;23.600;2023-05-14T01:26:23;5.60;;;2.60;;
40244;SDS011;25963;42.694;23.600;2023-05-14T01:28:48;3.83;;;2.00;;
40244;SDS011;25963;42.694;23.600;2023-05-14T01:31:17;3.67;;;2.35;;
40244;SDS011;25963;42.694;23.600;2023-05-14T01:33:49;2.53;;;2.03;;
40244;SDS011;25963;42.694;23.600;2023-05-14T01:36:16;4.43;;;1.90;;
40244;SDS011;25963;42.694;23.600;2023-05-14T01:38:41;3.35;;;1.90;;
40244;SDS011;25963;42.694;23.600;2023-05-14T01:41:10;2.92;;;2.25;;
40244;SDS011;25963;42.694;23.600;2023-05-14T01:43:36;4.07;;;1.90;;
40244;SDS011;25963;42.694;23.600;2023-05-14T01:46:03;2.97;;;2.00;;
40244;SDS011;25963;42.694;23.600;2023-05-14T01:48:28;3.28;;;2.10;;
40244;SDS011;25963;42.694;23.600;2023-05-14T01:50:54;3.22;;;2.15;;
40244;SDS011;25963;42.694;23.600;2023-05-14T01:53:19;2.78;;;2.00;;
40244;SDS011;25963;42.694;23.600;2023-05-14T01:55:45;3.20;;;1.90;;
40244;SDS011;25963;42.694;23.600;2023-05-14T01:58:10;2.35;;;1.88;;
40244;SDS011;25963;42.694;23.600;2023-05-14T02:00:36;3.13;;;1.95;;
40244;SDS011;25963;42.694;23.600;2023-05-14T02:03:02;4.75;;;2.00;;
40244;SDS011;25963;42.694;23.600;2023-05-14T02:05:28;4.32;;;2.42;;
40244;SDS011;25963;42.694;23.600;2023-05-14T02:07:53;4.95;;;2.35;;
40244;SDS011;25963;42.694;23.600;2023-05-14T02:10:18;3.97;;;2.55;;
40244;SDS011;25963;42.694;23.600;2023-05-14T02:12:44;3.05;;;2.30;;
40244;SDS011;25963;42.694;23.600;2023-05-14T02:15:09;3.85;;;3.40;;
40244;SDS011;25963;42.694;23.600;2023-05-14T02:17:35;3.17;;;2.10;;
40244;SDS011;25963;42.694;23.600;2023-05-14T02:20:01;4.07;;;2.30;;
40244;SDS011;25963;42.694;23.600;2023-05-14T02:22:26;2.67;;;2.30;;
40244;SDS011;25963;42.694;23.600;2023-05-14T02:24:52;5.18;;;2.75;;
40244;SDS011;25963;42.694;23.600;2023-05-14T02:27:17;3.13;;;2.55;;
40244;SDS011;25963;42.694;23.600;2023-05-14T02:29:43;5.38;;;2.80;;
40244;SDS011;25963;42.694;23.600;2023-05-14T02:32:09;2.83;;;2.53;;
40244;SDS011;25963;42.694;23.600;2023-05-14T02:34:34;3.80;;;2.80;;
40244;SDS011;25963;42.694;23.600;2023-05-14T02:37:00;5.05;;;2.70;;
40244;SDS011;25963;42.694;23.600;2023-05-14T02:39:25;4.30;;;2.83;;
40244;SDS011;25963;42.694;23.600;2023-05-14T02:41:50;3.08;;;2.75;;
40244;SDS011;25963;42.694;23.600;2023-05-14T02:44:16;6.13;;;3.33;;
40244;SDS011;25963;42.694;23.600;2023-05-14T02:46:41;5.88;;;3.17;;
40244;SDS011;25963;42.694;23.600;2023-05-14T02:49:07;3.78;;;2.97;;
40244;SDS011;25963;42.694;23.600;2023-05-14T02:51:33;5.30;;;3.25;;
40244;SDS011;25963;42.694;23.600;2023-05-14T02:53:58;5.65;;;3.30;;
40244;SDS011;25963;42.694;23.600;2023-05-14T02:56:24;6.10;;;3.40;;
40244;SDS011;25963;42.694;23.600;2023-05-14T02:58:50;4.65;;;3.03;;
40244;SDS011;25963;42.694;23.600;2023-05-14T03:01:16;4.20;;;3.05;;
40244;SDS011;25963;42.694;23.600;2023-05-14T03:03:42;7.00;;;4.05;;
40244;SDS011;25963;42.694;23.600;2023-05-14T03:06:08;4.85;;;2.90;;
40244;SDS011;25963;42.694;23.600;2023-05-14T03:08:33;3.80;;;2.90;;
40244;SDS011;25963;42.694;23.600;2023-05-14T03:10:59;6.65;;;3.40;;
40244;SDS011;25963;42.694;23.600;2023-05-14T03:13:24;6.25;;;3.30;;
40244;SDS011;25963;42.694;23.600;2023-05-14T03:15:50;6.13;;;3.50;;
40244;SDS011;25963;42.694;23.600;2023-05-14T03:18:18;4.72;;;3.35;;
40244;SDS011;25963;42.694;23.600;2023-05-14T03:20:44;4.70;;;3.30;;
40244;SDS011;25963;42.694;23.600;2023-05-14T03:23:09;5.47;;;2.85;;
40244;SDS011;25963;42.694;23.600;2023-05-14T03:25:35;3.97;;;3.30;;
40244;SDS011;25963;42.694;23.600;2023-05-14T03:28:00;5.55;;;3.13;;
40244;SDS011;25963;42.694;23.600;2023-05-14T03:30:26;3.20;;;2.90;;
40244;SDS011;25963;42.694;23.600;2023-05-14T03:32:52;6.53;;;3.30;;
40244;SDS011;25963;42.694;23.600;2023-05-14T03:35:17;5.13;;;3.53;;
40244;SDS011;25963;42.694;23.600;2023-05-14T03:37:43;3.60;;;3.03;;
40244;SDS011;25963;42.694;23.600;2023-05-14T03:40:08;4.25;;;3.10;;
40244;SDS011;25963;42.694;23.600;2023-05-14T03:42:34;5.05;;;3.08;;
40244;SDS011;25963;42.694;23.600;2023-05-14T03:45:00;4.72;;;4.13;;
40244;SDS011;25963;42.694;23.600;2023-05-14T03:47:25;5.05;;;3.28;;
40244;SDS011;25963;42.694;23.600;2023-05-14T03:49:50;6.32;;;2.90;;
40244;SDS011;25963;42.694;23.600;2023-05-14T03:52:16;4.00;;;3.00;;
40244;SDS011;25963;42.694;23.600;2023-05-14T03:54:41;5.78;;;3.00;;
40244;SDS011;25963;42.694;23.600;2023-05-14T03:57:07;5.38;;;3.13;;
40244;SDS011;25963;42.694;23.600;2023-05-14T03:59:32;4.10;;;2.95;;
40244;SDS011;25963;42.694;23.600;2023-05-14T04:01:58;5.95;;;3.17;;
40244;SDS011;25963;42.694;23.600;2023-05-14T04:04:23;3.95;;;3.42;;
40244;SDS011;25963;42.694;23.600;2023-05-14T04:06:48;5.10;;;3.30;;
40244;SDS011;25963;42.694;23.600;2023-05-14T04:09:14;4.90;;;3.30;;
40244;SDS011;25963;42.694;23.600;2023-05-14T04:11:39;3.50;;;3.00;;
40244;SDS011;25963;42.694;23.600;2023-05-14T04:14:05;5.13;;;2.92;;
40244;SDS011;25963;42.694;23.600;2023-05-14T04:16:30;6.95;;;3.55;;
40244;SDS011;25963;42.694;23.600;2023-05-14T04:18:56;5.32;;;3.63;;
40244;SDS011;25963;42.694;23.600;2023-05-14T04:21:21;5.97;;;3.83;;
40244;SDS011;25963;42.694;23.600;2023-05-14T04:23:47;8.50;;;5.03;;
40244;SDS011;25963;42.694;23.600;2023-05-14T04:26:12;8.27;;;6.03;;
40244;SDS011;25963;42.694;23.600;2023-05-14T04:28:38;9.00;;;4.78;;
40244;SDS011;25963;42.694;23.600;2023-05-14T04:31:03;5.43;;;4.07;;
40244;SDS011;25963;42.694;23.600;2023-05-14T04:33:29;6.80;;;3.70;;
40244;SDS011;25963;42.694;23.600;2023-05-14T04:35:55;5.50;;;4.65;;
40244;SDS011;25963;42.694;23.600;2023-05-14T04:38:20;6.50;;;3.50;;
40244;SDS011;25963;42.694;23.600;2023-05-14T04:40:45;5.40;;;3.58;;
40244;SDS011;25963;42.694;23.600;2023-05-14T04:43:11;6.15;;;4.07;;
40244;SDS011;25963;42.694;23.600;2023-05-14T04:45:36;8.38;;;3.72;;
40244;SDS011;25963;42.694;23.600;2023-05-14T04:48:02;6.45;;;4.38;;
40244;SDS011;25963;42.694;23.600;2023-05-14T04:50:28;6.43;;;3.97;;
40244;SDS011;25963;42.694;23.600;2023-05-14T04:52:54;8.77;;;4.32;;
40244;SDS011;25963;42.694;23.600;2023-05-14T04:55:20;7.88;;;5.70;;
40244;SDS011;25963;42.694;23.600;2023-05-14T04:57:45;9.35;;;6.15;;
40244;SDS011;25963;42.694;23.600;2023-05-14T05:00:11;7.78;;;6.35;;
40244;SDS011;25963;42.694;23.600;2023-05-14T05:02:37;9.88;;;6.20;;
40244;SDS011;25963;42.694;23.600;2023-05-14T05:05:02;6.45;;;4.55;;
40244;SDS011;25963;42.694;23.600;2023-05-14T05:07:28;4.78;;;3.55;;
40244;SDS011;25963;42.694;23.600;2023-05-14T05:09:54;6.03;;;4.13;;
40244;SDS011;25963;42.694;23.600;2023-05-14T05:12:19;4.50;;;3.70;;
40244;SDS011;25963;42.694;23.600;2023-05-14T05:14:45;4.50;;;4.10;;
40244;SDS011;25963;42.694;23.600;2023-05-14T05:17:10;6.07;;;4.28;;
40244;SDS011;25963;42.694;23.600;2023-05-14T05:19:36;6.05;;;4.20;;
40244;SDS011;25963;42.694;23.600;2023-05-14T05:22:01;4.80;;;4.30;;
40244;SDS011;25963;42.694;23.600;2023-05-14T05:24:27;9.90;;;7.35;;
40244;SDS011;25963;42.694;23.600;2023-05-14T05:26:52;38.28;;;22.13;;
40244;SDS011;25963;42.694;23.600;2023-05-14T05:29:19;37.65;;;17.80;;
40244;SDS011;25963;42.694;23.600;2023-05-14T05:31:45;31.23;;;13.90;;
40244;SDS011;25963;42.694;23.600;2023-05-14T05:34:11;30.83;;;15.95;;
40244;SDS011;25963;42.694;23.600;2023-05-14T05:36:36;5.68;;;5.05;;
40244;SDS011;25963;42.694;23.600;2023-05-14T05:39:02;5.95;;;4.85;;
40244;SDS011;25963;42.694;23.600;2023-05-14T05:41:27;7.85;;;4.50;;
40244;SDS011;25963;42.694;23.600;2023-05-14T05:43:54;27.77;;;12.60;;
40244;SDS011;25963;42.694;23.600;2023-05-14T05:46:19;55.17;;;24.45;;
40244;SDS011;25963;42.694;23.600;2023-05-14T05:48:45;117.50;;;44.03;;
40244;SDS011;25963;42.694;23.600;2023-05-14T05:51:10;83.30;;;35.22;;
40244;SDS011;25963;42.694;23.600;2023-05-14T05:53:36;84.15;;;34.10;;
40244;SDS011;25963;42.694;23.600;2023-05-14T05:56:01;45.38;;;22.58;;
40244;SDS011;25963;42.694;23.600;2023-05-14T05:58:27;22.67;;;10.10;;
40244;SDS011;25963;42.694;23.600;2023-05-14T06:00:52;60.20;;;26.85;;
40244;SDS011;25963;42.694;23.600;2023-05-14T06:03:17;83.90;;;35.85;;
40244;SDS011;25963;42.694;23.600;2023-05-14T06:05:43;95.57;;;44.13;;
40244;SDS011;25963;42.694;23.600;2023-05-14T06:08:08;109.28;;;51.42;;
40244;SDS011;25963;42.694;23.600;2023-05-14T06:10:34;25.42;;;15.68;;
40244;SDS011;25963;42.694;23.600;2023-05-14T06:13:00;30.33;;;15.80;;
40244;SDS011;25963;42.694;23.600;2023-05-14T06:15:26;24.08;;;14.38;;
40244;SDS011;25963;42.694;23.600;2023-05-14T06:17:51;33.47;;;17.98;;
40244;SDS011;25963;42.694;23.600;2023-05-14T06:20:16;35.80;;;19.10;;
40244;SDS011;25963;42.694;23.600;2023-05-14T06:22:42;44.70;;;22.80;;
40244;SDS011;25963;42.694;23.600;2023-05-14T06:25:08;41.60;;;20.70;;
40244;SDS011;25963;42.694;23.600;2023-05-14T06:27:34;30.15;;;15.15;;
40244;SDS011;25963;42.694;23.600;2023-05-14T06:29:59;40.10;;;19.25;;
40244;SDS011;25963;42.694;23.600;2023-05-14T06:32:25;22.10;;;11.65;;
40244;SDS011;25963;42.694;23.600;2023-05-14T06:34:50;39.22;;;20.63;;
40244;SDS011;25963;42.694;23.600;2023-05-14T06:37:16;56.05;;;26.25;;
40244;SDS011;25963;42.694;23.600;2023-05-14T06:39:41;24.52;;;14.15;;
40244;SDS011;25963;42.694;23.600;2023-05-14T06:42:13;30.75;;;17.08;;
40244;SDS011;25963;42.694;23.600;2023-05-14T06:44:39;30.83;;;17.55;;
40244;SDS011;25963;42.694;23.600;2023-05-14T06:47:05;22.58;;;14.98;;
40244;SDS011;25963;42.694;23.600;2023-05-14T06:49:32;12.40;;;9.85;;
40244;SDS011;25963;42.694;23.600;2023-05-14T06:51:58;20.80;;;13.75;;
40244;SDS011;25963;42.694;23.600;2023-05-14T06:54:24;11.45;;;9.38;;
40244;SDS011;25963;42.694;23.600;2023-05-14T06:56:49;12.45;;;7.88;;
40244;SDS011;25963;42.694;23.600;2023-05-14T06:59:15;15.38;;;9.90;;
40244;SDS011;25963;42.694;23.600;2023-05-14T07:01:40;16.67;;;9.38;;
40244;SDS011;25963;42.694;23.600;2023-05-14T07:04:05;10.57;;;8.45;;
40244;SDS011;25963;42.694;23.600;2023-05-14T07:06:31;16.77;;;10.07;;
40244;SDS011;25963;42.694;23.600;2023-05-14T07:08:56;12.82;;;8.50;;
40244;SDS011;25963;42.694;23.600;2023-05-14T07:11:23;19.63;;;10.50;;
40244;SDS011;25963;42.694;23.600;2023-05-14T07:13:49;33.67;;;16.95;;
40244;SDS011;25963;42.694;23.600;2023-05-14T07:16:14;51.72;;;22.38;;
40244;SDS011;25963;42.694;23.600;2023-05-14T07:18:40;13.32;;;8.50;;
40244;SDS011;25963;42.694;23.600;2023-05-14T07:21:05;25.20;;;12.23;;
40244;SDS011;25963;42.694;23.600;2023-05-14T07:23:31;12.38;;;8.77;;
40244;SDS011;25963;42.694;23.600;2023-05-14T07:25:57;15.68;;;10.00;;
40244;SDS011;25963;42.694;23.600;2023-05-14T07:28:23;35.00;;;16.63;;
40244;SDS011;25963;42.694;23.600;2023-05-14T07:30:48;11.43;;;9.60;;
40244;SDS011;25963;42.694;23.600;2023-05-14T07:33:13;11.50;;;8.90;;
40244;SDS011;25963;42.694;23.600;2023-05-14T07:35:39;13.38;;;10.82;;
40244;SDS011;25963;42.694;23.600;2023-05-14T07:38:04;11.75;;;8.70;;
40244;SDS011;25963;42.694;23.600;2023-05-14T07:40:30;11.13;;;9.80;;
40244;SDS011;25963;42.694;23.600;2023-05-14T07:42:55;10.52;;;8.30;;
40244;SDS011;25963;42.694;23.600;2023-05-14T07:45:21;11.43;;;9.10;;
40244;SDS011;25963;42.694;23.600;2023-05-14T07:47:46;18.50;;;11.95;;
40244;SDS011;25963;42.694;23.600;2023-05-14T07:50:15;20.25;;;14.52;;
40244;SDS011;25963;42.694;23.600;2023-05-14T07:52:42;16.70;;;12.43;;
40244;SDS011;25963;42.694;23.600;2023-05-14T07:55:07;24.35;;;15.73;;
40244;SDS011;25963;42.694;23.600;2023-05-14T07:57:33;26.10;;;19.67;;
40244;SDS011;25963;42.694;23.600;2023-05-14T07:59:59;23.50;;;17.33;;
40244;SDS011;25963;42.694;23.600;2023-05-14T08:02:25;25.67;;;17.50;;
40244;SDS011;25963;42.694;23.600;2023-05-14T08:04:50;17.45;;;12.98;;
40244;SDS011;25963;42.694;23.600;2023-05-14T08:07:16;18.70;;;13.93;;
40244;SDS011;25963;42.694;23.600;2023-05-14T08:09:41;16.63;;;11.02;;
40244;SDS011;25963;42.694;23.600;2023-05-14T08:12:07;18.15;;;12.48;;
40244;SDS011;25963;42.694;23.600;2023-05-14T08:14:32;19.33;;;14.02;;
40244;SDS011;25963;42.694;23.600;2023-05-14T08:16:58;12.80;;;9.23;;
40244;SDS011;25963;42.694;23.600;2023-05-14T08:19:23;12.50;;;9.95;;
40244;SDS011;25963;42.694;23.600;2023-05-14T08:21:51;15.35;;;9.38;;
40244;SDS011;25963;42.694;23.600;2023-05-14T08:24:17;14.23;;;9.73;;
40244;SDS011;25963;42.694;23.600;2023-05-14T08:26:43;14.77;;;11.32;;
40244;SDS011;25963;42.694;23.600;2023-05-14T08:29:08;16.25;;;10.70;;
40244;SDS011;25963;42.694;23.600;2023-05-14T08:31:33;13.98;;;8.93;;
40244;SDS011;25963;42.694;23.600;2023-05-14T08:33:59;16.13;;;11.57;;
40244;SDS011;25963;42.694;23.600;2023-05-14T08:36:25;15.07;;;9.98;;
40244;SDS011;25963;42.694;23.600;2023-05-14T08:38:50;14.50;;;10.10;;
40244;SDS011;25963;42.694;23.600;2023-05-14T08:41:16;13.18;;;10.00;;
40244;SDS011;25963;42.694;23.600;2023-05-14T08:46:16;12.23;;;8.00;;
40244;SDS011;25963;42.694;23.600;2023-05-14T08:48:46;11.65;;;9.00;;
40244;SDS011;25963;42.694;23.600;2023-05-14T08:51:19;11.95;;;9.13;;
40244;SDS011;25963;42.694;23.600;2023-05-14T08:53:44;14.82;;;9.43;;
40244;SDS011;25963;42.694;23.600;2023-05-14T08:56:11;10.00;;;7.90;;
40244;SDS011;25963;42.694;23.600;2023-05-14T08:58:38;10.70;;;8.75;;
40244;SDS011;25963;42.694;23.600;2023-05-14T09:01:03;17.15;;;11.48;;
40244;SDS011;25963;42.694;23.600;2023-05-14T09:03:29;21.08;;;13.85;;
40244;SDS011;25963;42.694;23.600;2023-05-14T09:05:55;19.48;;;12.23;;
40244;SDS011;25963;42.694;23.600;2023-05-14T09:08:22;29.63;;;16.42;;
40244;SDS011;25963;42.694;23.600;2023-05-14T09:10:47;16.73;;;11.70;;
40244;SDS011;25963;42.694;23.600;2023-05-14T09:13:13;13.65;;;10.82;;
40244;SDS011;25963;42.694;23.600;2023-05-14T09:15:38;13.73;;;12.30;;
40244;SDS011;25963;42.694;23.600;2023-05-14T09:18:05;11.77;;;9.50;;
40244;SDS011;25963;42.694;23.600;2023-05-14T09:20:30;26.48;;;14.73;;
40244;SDS011;25963;42.694;23.600;2023-05-14T09:22:57;10.25;;;8.23;;
40244;SDS011;25963;42.694;23.600;2023-05-14T09:25:26;8.75;;;6.85;;
40244;SDS011;25963;42.694;23.600;2023-05-14T09:27:56;24.58;;;13.50;;
40244;SDS011;25963;42.694;23.600;2023-05-14T09:30:22;11.05;;;7.45;;
40244;SDS011;25963;42.694;23.600;2023-05-14T09:32:49;11.48;;;8.05;;
40244;SDS011;25963;42.694;23.600;2023-05-14T09:35:21;9.93;;;7.10;;
40244;SDS011;25963;42.694;23.600;2023-05-14T09:37:49;12.57;;;8.50;;
40244;SDS011;25963;42.694;23.600;2023-05-14T09:40:16;8.95;;;7.88;;
40244;SDS011;25963;42.694;23.600;2023-05-14T09:42:43;10.70;;;9.48;;
40244;SDS011;25963;42.694;23.600;2023-05-14T09:45:09;13.02;;;9.68;;
40244;SDS011;25963;42.694;23.600;2023-05-14T09:47:36;13.57;;;10.05;;
40244;SDS011;25963;42.694;23.600;2023-05-14T09:50:02;11.82;;;8.50;;
40244;SDS011;25963;42.694;23.600;2023-05-14T09:52:29;9.23;;;8.30;;
40244;SDS011;25963;42.694;23.600;2023-05-14T09:54:54;11.00;;;7.97;;
40244;SDS011;25963;42.694;23.600;2023-05-14T09:57:20;12.50;;;9.77;;
40244;SDS011;25963;42.694;23.600;2023-05-14T09:59:46;8.80;;;7.85;;
40244;SDS011;25963;42.694;23.600;2023-05-14T10:02:24;10.95;;;9.40;;
40244;SDS011;25963;42.694;23.600;2023-05-14T10:05:04;14.20;;;10.23;;
40244;SDS011;25963;42.694;23.600;2023-05-14T10:07:34;11.57;;;9.85;;
40244;SDS011;25963;42.694;23.600;2023-05-14T10:10:04;10.77;;;9.55;;
40244;SDS011;25963;42.694;23.600;2023-05-14T10:12:33;11.85;;;9.00;;
40244;SDS011;25963;42.694;23.600;2023-05-14T10:15:04;16.60;;;10.38;;
40244;SDS011;25963;42.694;23.600;2023-05-14T10:17:40;12.30;;;9.73;;
40244;SDS011;25963;42.694;23.600;2023-05-14T10:20:13;11.23;;;9.32;;
40244;SDS011;25963;42.694;23.600;2023-05-14T10:22:42;12.90;;;9.63;;
40244;SDS011;25963;42.694;23.600;2023-05-14T10:25:08;12.55;;;10.73;;
40244;SDS011;25963;42.694;23.600;2023-05-14T10:27:34;14.02;;;11.40;;
40244;SDS011;25963;42.694;23.600;2023-05-14T10:30:01;17.52;;;11.93;;
40244;SDS011;25963;42.694;23.600;2023-05-14T10:32:31;18.02;;;12.68;;
40244;SDS011;25963;42.694;23.600;2023-05-14T10:34:57;13.40;;;11.63;;
40244;SDS011;25963;42.694;23.600;2023-05-14T10:37:25;76.03;;;30.83;;
40244;SDS011;25963;42.694;23.600;2023-05-14T10:40:01;40.58;;;18.50;;
40244;SDS011;25963;42.694;23.600;2023-05-14T10:42:36;22.52;;;13.38;;
40244;SDS011;25963;42.694;23.600;2023-05-14T10:47:44;13.43;;;11.52;;
40244;SDS011;25963;42.694;23.600;2023-05-14T10:50:11;15.82;;;12.10;;
40244;SDS011;25963;42.694;23.600;2023-05-14T10:52:42;14.77;;;12.82;;
40244;SDS011;25963;42.694;23.600;2023-05-14T10:55:13;20.77;;;14.15;;
40244;SDS011;25963;42.694;23.600;2023-05-14T10:57:41;13.30;;;11.23;;
40244;SDS011;25963;42.694;23.600;2023-05-14T11:00:08;11.32;;;10.15;;
40244;SDS011;25963;42.694;23.600;2023-05-14T11:02:37;11.63;;;10.43;;
40244;SDS011;25963;42.694;23.600;2023-05-14T11:10:04;17.35;;;13.45;;
40244;SDS011;25963;42.694;23.600;2023-05-14T11:12:35;17.63;;;15.00;;
40244;SDS011;25963;42.694;23.600;2023-05-14T11:15:03;13.70;;;12.20;;
40244;SDS011;25963;42.694;23.600;2023-05-14T11:17:30;13.38;;;11.65;;
40244;SDS011;25963;42.694;23.600;2023-05-14T11:19:56;17.83;;;14.45;;
40244;SDS011;25963;42.694;23.600;2023-05-14T11:22:23;17.80;;;14.40;;
40244;SDS011;25963;42.694;23.600;2023-05-14T11:24:49;12.88;;;11.68;;
40244;SDS011;25963;42.694;23.600;2023-05-14T11:27:15;16.45;;;12.60;;
40244;SDS011;25963;42.694;23.600;2023-05-14T11:29:42;12.80;;;11.50;;
40244;SDS011;25963;42.694;23.600;2023-05-14T11:32:10;15.15;;;12.55;;
40244;SDS011;25963;42.694;23.600;2023-05-14T11:34:35;11.48;;;10.38;;
40244;SDS011;25963;42.694;23.600;2023-05-14T11:37:04;11.75;;;10.43;;
40244;SDS011;25963;42.694;23.600;2023-05-14T11:39:34;13.48;;;10.95;;
40244;SDS011;25963;42.694;23.600;2023-05-14T11:42:02;14.90;;;12.63;;
40244;SDS011;25963;42.694;23.600;2023-05-14T11:44:39;11.75;;;10.10;;
40244;SDS011;25963;42.694;23.600;2023-05-14T11:47:05;13.77;;;12.40;;
40244;SDS011;25963;42.694;23.600;2023-05-14T11:49:31;11.18;;;10.02;;
40244;SDS011;25963;42.694;23.600;2023-05-14T11:51:57;13.93;;;11.40;;
40244;SDS011;25963;42.694;23.600;2023-05-14T11:54:30;13.73;;;12.27;;
40244;SDS011;25963;42.694;23.600;2023-05-14T11:56:56;13.35;;;11.95;;
40244;SDS011;25963;42.694;23.600;2023-05-14T11:59:23;13.68;;;12.27;;
40244;SDS011;25963;42.694;23.600;2023-05-14T12:01:49;10.70;;;9.40;;
40244;SDS011;25963;42.694;23.600;2023-05-14T12:04:17;13.27;;;10.32;;
40244;SDS011;25963;42.694;23.600;2023-05-14T12:06:46;12.80;;;11.32;;
40244;SDS011;25963;42.694;23.600;2023-05-14T12:09:13;17.42;;;14.52;;
40244;SDS011;25963;42.694;23.600;2023-05-14T12:11:40;15.23;;;13.43;;
40244;SDS011;25963;42.694;23.600;2023-05-14T12:14:10;10.85;;;9.75;;
40244;SDS011;25963;42.694;23.600;2023-05-14T12:16:38;12.50;;;11.15;;
40244;SDS011;25963;42.694;23.600;2023-05-14T12:19:05;14.75;;;11.77;;
40244;SDS011;25963;42.694;23.600;2023-05-14T12:21:34;14.98;;;13.43;;
40244;SDS011;25963;42.694;23.600;2023-05-14T12:24:00;18.45;;;16.65;;
40244;SDS011;25963;42.694;23.600;2023-05-14T12:26:26;16.55;;;14.85;;
40244;SDS011;25963;42.694;23.600;2023-05-14T12:28:59;17.15;;;14.70;;
40244;SDS011;25963;42.694;23.600;2023-05-14T12:31:32;15.80;;;12.50;;
40244;SDS011;25963;42.694;23.600;2023-05-14T12:33:58;15.00;;;13.43;;
40244;SDS011;25963;42.694;23.600;2023-05-14T12:36:24;16.35;;;14.65;;
40244;SDS011;25963;42.694;23.600;2023-05-14T12:38:49;14.95;;;13.45;;
40244;SDS011;25963;42.694;23.600;2023-05-14T12:41:20;18.90;;;14.70;;
40244;SDS011;25963;42.694;23.600;2023-05-14T12:43:46;15.20;;;13.65;;
40244;SDS011;25963;42.694;23.600;2023-05-14T12:46:13;15.85;;;14.25;;
40244;SDS011;25963;42.694;23.600;2023-05-14T12:48:38;16.10;;;14.30;;
40244;SDS011;25963;42.694;23.600;2023-05-14T12:51:04;17.23;;;15.52;;
40244;SDS011;25963;42.694;23.600;2023-05-14T12:53:30;17.92;;;14.65;;
40244;SDS011;25963;42.694;23.600;2023-05-14T12:55:55;17.55;;;14.18;;
40244;SDS011;25963;42.694;23.600;2023-05-14T12:58:21;18.33;;;16.17;;
40244;SDS011;25963;42.694;23.600;2023-05-14T13:00:46;18.65;;;16.65;;
40244;SDS011;25963;42.694;23.600;2023-05-14T13:03:12;19.38;;;16.23;;
40244;SDS011;25963;42.694;23.600;2023-05-14T13:05:37;19.23;;;17.15;;
40244;SDS011;25963;42.694;23.600;2023-05-14T13:08:03;18.48;;;16.63;;
40244;SDS011;25963;42.694;23.600;2023-05-14T13:10:28;20.38;;;16.85;;
40244;SDS011;25963;42.694;23.600;2023-05-14T13:12:54;17.65;;;15.50;;
40244;SDS011;25963;42.694;23.600;2023-05-14T13:15:20;18.40;;;15.98;;
40244;SDS011;25963;42.694;23.600;2023-05-14T13:17:46;17.50;;;15.77;;
40244;SDS011;25963;42.694;23.600;2023-05-14T13:20:12;20.77;;;17.80;;
40244;SDS011;25963;42.694;23.600;2023-05-14T13:22:38;15.57;;;13.50;;
40244;SDS011;25963;42.694;23.600;2023-05-14T13:25:03;21.63;;;19.30;;
40244;SDS011;25963;42.694;23.600;2023-05-14T13:27:29;22.55;;;19.33;;
40244;SDS011;25963;42.694;23.600;2023-05-14T13:29:54;52.33;;;31.25;;
40244;SDS011;25963;42.694;23.600;2023-05-14T13:32:20;26.30;;;19.25;;
40244;SDS011;25963;42.694;23.600;2023-05-14T13:34:46;20.98;;;18.75;;
40244;SDS011;25963;42.694;23.600;2023-05-14T13:37:11;19.63;;;17.23;;
40244;SDS011;25963;42.694;23.600;2023-05-14T13:39:37;23.10;;;17.88;;
40244;SDS011;25963;42.694;23.600;2023-05-14T13:42:03;36.47;;;26.33;;
40244;SDS011;25963;42.694;23.600;2023-05-14T13:44:29;63.78;;;29.20;;
40244;SDS011;25963;42.694;23.600;2023-05-14T13:46:55;31.48;;;21.27;;
40244;SDS011;25963;42.694;23.600;2023-05-14T13:49:20;19.83;;;17.45;;
40244;SDS011;25963;42.694;23.600;2023-05-14T13:51:45;30.45;;;19.88;;
40244;SDS011;25963;42.694;23.600;2023-05-14T13:54:11;30.55;;;21.33;;
40244;SDS011;25963;42.694;23.600;2023-05-14T13:56:36;19.00;;;16.50;;
40244;SDS011;25963;42.694;23.600;2023-05-14T13:59:02;22.00;;;18.95;;
40244;SDS011;25963;42.694;23.600;2023-05-14T14:01:28;20.42;;;18.00;;
40244;SDS011;25963;42.694;23.600;2023-05-14T14:03:55;21.65;;;18.33;;
40244;SDS011;25963;42.694;23.600;2023-05-14T14:06:20;20.75;;;17.77;;
40244;SDS011;25963;42.694;23.600;2023-05-14T14:08:45;20.58;;;17.85;;
40244;SDS011;25963;42.694;23.600;2023-05-14T14:11:11;23.67;;;20.75;;
40244;SDS011;25963;42.694;23.600;2023-05-14T14:13:37;21.95;;;18.40;;
40244;SDS011;25963;42.694;23.600;2023-05-14T14:16:04;23.10;;;17.70;;
40244;SDS011;25963;42.694;23.600;2023-05-14T14:18:30;21.55;;;16.40;;
40244;SDS011;25963;42.694;23.600;2023-05-14T14:20:56;23.25;;;20.40;;
40244;SDS011;25963;42.694;23.600;2023-05-14T14:23:21;30.90;;;18.77;;
40244;SDS011;25963;42.694;23.600;2023-05-14T14:25:47;28.52;;;17.55;;
40244;SDS011;25963;42.694;23.600;2023-05-14T14:28:12;31.35;;;22.23;;
40244;SDS011;25963;42.694;23.600;2023-05-14T14:30:38;26.13;;;22.40;;
40244;SDS011;25963;42.694;23.600;2023-05-14T14:33:03;27.48;;;23.25;;